createdAt,value
2017-12-02T09:50:18.469Z,106
2017-12-02T09:52:35.358Z,86
2017-12-02T10:53:32.787Z,62
2017-12-02T10:55:38.242Z,61
2017-12-02T10:57:45.083Z,61
2017-12-02T10:59:57.161Z,74
2017-12-02T11:02:03.441Z,62
2017-12-02T11:04:10.697Z,72
2017-12-02T11:06:16.982Z,61
2017-12-02T11:08:24.042Z,62
2017-12-02T11:10:30.059Z,74
2017-12-02T11:12:35.934Z,64
2017-12-02T11:14:41.201Z,63
2017-12-02T11:16:46.603Z,76
2017-12-02T11:18:52.599Z,76
2017-12-02T11:20:58.820Z,76
2017-12-02T11:23:05.799Z,75
2017-12-02T11:25:21.242Z,75
2017-12-02T11:27:27.320Z,75
2017-12-02T11:29:33.822Z,61
2017-12-02T11:31:39.737Z,63
2017-12-02T11:33:45.299Z,76
2017-12-02T11:35:50.101Z,76
2017-12-02T11:37:56.623Z,76
2017-12-02T11:40:01.618Z,76
2017-12-02T11:42:07.204Z,76
2017-12-02T11:44:12.513Z,76
2017-12-02T11:46:17.704Z,60
2017-12-02T11:48:23.401Z,62
2017-12-02T11:50:30.505Z,61
2017-12-02T11:52:35.837Z,63
2017-12-02T11:54:42.498Z,62
2017-12-02T11:56:49.215Z,63
2017-12-02T11:58:54.941Z,61
2017-12-02T12:01:01.984Z,62
2017-12-02T12:03:23.576Z,63
2017-12-02T12:05:31.169Z,62
2017-12-02T12:07:36.722Z,75
2017-12-02T12:09:53.651Z,62
2017-12-02T12:11:59.896Z,62
2017-12-02T12:14:07.479Z,61
2017-12-02T12:16:19.956Z,63
2017-12-02T12:18:28.428Z,62
2017-12-02T12:20:34.741Z,63
2017-12-02T12:22:40.196Z,60
2017-12-02T12:24:47.164Z,61
2017-12-02T12:26:58.199Z,62
2017-12-02T12:29:03.595Z,63
2017-12-02T12:31:09.862Z,59
2017-12-02T12:33:17.944Z,61
2017-12-02T12:35:23.540Z,60
2017-12-02T12:37:28.958Z,61
2017-12-02T12:39:36.641Z,62
2017-12-02T12:41:43.620Z,63
2017-12-02T12:43:49.736Z,61
2017-12-02T12:45:56.174Z,63
2017-12-02T12:48:01.786Z,68
2017-12-02T12:50:07.237Z,75
2017-12-02T12:52:13.902Z,72
2017-12-02T12:54:20.159Z,75
2017-12-02T12:56:25.288Z,76
2017-12-02T12:58:31.703Z,75
2017-12-02T13:00:37.706Z,61
2017-12-02T13:02:44.638Z,62
2017-12-02T13:04:49.860Z,63
2017-12-02T13:06:55.700Z,76
2017-12-02T13:09:00.501Z,78
2017-12-02T13:11:05.783Z,76
2017-12-02T13:13:11.537Z,84
2017-12-02T13:15:17.562Z,78
2017-12-02T13:17:25.469Z,75
2017-12-02T13:19:31.177Z,77
2017-12-02T13:21:36.021Z,77
2017-12-02T13:23:51.977Z,74
2017-12-02T13:25:58.106Z,77
2017-12-02T13:30:21.841Z,27
2017-12-02T13:32:28.155Z,28
2017-12-02T13:34:34.418Z,28
2017-12-02T13:36:40.399Z,28
2017-12-02T13:38:46.432Z,25
2017-12-02T13:40:51.841Z,30
2017-12-02T13:42:58.743Z,24
2017-12-02T13:45:05.289Z,39
2017-12-02T13:47:10.893Z,28
2017-12-02T13:49:18.999Z,23
2017-12-02T13:51:25.000Z,28
2017-12-02T13:53:31.345Z,28
2017-12-02T13:55:39.849Z,29
2017-12-02T13:57:45.378Z,28
2017-12-02T13:59:52.105Z,29
2017-12-02T14:01:59.474Z,29
2017-12-02T14:04:06.040Z,24
2017-12-02T14:06:14.007Z,24
2017-12-02T14:08:23.699Z,28
2017-12-02T14:10:30.398Z,28
2017-12-02T14:12:36.002Z,28
2017-12-02T14:14:41.805Z,28
2017-12-02T14:16:46.180Z,29
2017-12-02T14:18:53.621Z,29
2017-12-02T14:20:59.282Z,28
2017-12-02T14:23:05.542Z,28
2017-12-02T14:25:11.921Z,28
2017-12-02T14:27:19.897Z,28
2017-12-02T14:29:26.142Z,29
2017-12-02T14:31:39.261Z,29
2017-12-02T14:33:47.586Z,29
2017-12-02T14:35:56.441Z,31
2017-12-02T14:38:03.583Z,30
2017-12-02T14:40:08.582Z,30
2017-12-02T14:42:15.157Z,30
2017-12-02T14:44:21.559Z,31
2017-12-02T14:46:29.503Z,30
2017-12-02T14:48:35.243Z,29
2017-12-02T14:50:40.843Z,29
2017-12-02T14:52:49.901Z,29
2017-12-02T14:54:55.801Z,31
2017-12-02T14:57:05.141Z,30
2017-12-02T14:59:16.460Z,31
2017-12-02T15:01:21.620Z,30
2017-12-02T15:03:29.420Z,29
2017-12-02T15:05:36.782Z,28
2017-12-02T15:07:42.825Z,28
2017-12-02T15:09:53.361Z,32
2017-12-02T15:12:02.829Z,32
2017-12-02T15:14:12.082Z,30
2017-12-02T15:16:22.463Z,30
2017-12-02T15:18:30.518Z,34
2017-12-02T15:20:37.562Z,32
2017-12-02T15:22:46.845Z,29
2017-12-02T15:24:52.923Z,31
2017-12-02T15:26:59.282Z,32
2017-12-02T15:29:05.403Z,32
2017-12-02T15:31:11.946Z,32
2017-12-02T15:33:19.959Z,31
2017-12-02T15:35:26.177Z,30
2017-12-02T15:37:32.577Z,31
2017-12-02T15:39:41.741Z,31
2017-12-02T15:41:47.180Z,31
2017-12-02T15:43:52.441Z,31
2017-12-02T15:45:57.799Z,31
2017-12-02T15:48:03.658Z,31
2017-12-02T15:50:10.728Z,30
2017-12-02T15:52:19.108Z,30
2017-12-02T15:54:24.905Z,31
2017-12-02T15:56:31.276Z,36
2017-12-02T15:58:37.321Z,33
2017-12-02T16:00:46.937Z,31
2017-12-02T16:02:54.165Z,30
2017-12-02T16:05:00.121Z,30
2017-12-02T16:07:08.281Z,32
2017-12-02T16:09:17.484Z,2
2017-12-02T16:13:35.105Z,35
2017-12-02T16:15:40.698Z,34
2017-12-02T16:17:46.099Z,29
2017-12-02T16:19:51.479Z,1
2017-12-02T16:21:57.057Z,0
2017-12-02T16:24:03.161Z,1
2017-12-02T16:26:13.098Z,1
2017-12-02T16:28:22.106Z,1
2017-12-02T16:30:29.322Z,1
2017-12-02T16:32:35.855Z,2
